sensor_id;sensor_type;location;lat;lon;timestamp;temperature;humidity
24085;DHT22;12268;52.110;5.548;2022-07-11T00:02:25;22.20;99.90
24085;DHT22;12268;52.110;5.548;2022-07-11T00:04:50;22.20;99.90
24085;DHT22;12268;52.110;5.548;2022-07-11T00:07:16;22.30;99.90
24085;DHT22;12268;52.110;5.548;2022-07-11T00:09:42;22.20;99.90
24085;DHT22;12268;52.110;5.548;2022-07-11T00:12:09;22.20;99.90
24085;DHT22;12268;52.110;5.548;2022-07-11T00:14:35;22.10;99.90
24085;DHT22;12268;52.110;5.548;2022-07-11T00:17:01;22.20;99.90
24085;DHT22;12268;52.110;5.548;2022-07-11T00:19:26;22.10;99.90
24085;DHT22;12268;52.110;5.548;2022-07-11T00:21:52;22.10;99.90
24085;DHT22;12268;52.110;5.548;2022-07-11T00:24:18;22.10;99.90
24085;DHT22;12268;52.110;5.548;2022-07-11T00:26:46;22.10;99.90
24085;DHT22;12268;52.110;5.548;2022-07-11T00:29:12;22.20;99.90
24085;DHT22;12268;52.110;5.548;2022-07-11T00:31:37;22.20;99.90
24085;DHT22;12268;52.110;5.548;2022-07-11T00:34:03;22.20;99.90
24085;DHT22;12268;52.110;5.548;2022-07-11T01:54:22;21.60;99.90
24085;DHT22;12268;52.110;5.548;2022-07-11T01:56:48;21.50;99.90
24085;DHT22;12268;52.110;5.548;2022-07-11T01:59:13;21.50;99.90
24085;DHT22;12268;52.110;5.548;2022-07-11T02:01:39;21.80;99.90
24085;DHT22;12268;52.110;5.548;2022-07-11T02:04:04;21.70;99.90
24085;DHT22;12268;52.110;5.548;2022-07-11T02:06:31;21.70;99.90
24085;DHT22;12268;52.110;5.548;2022-07-11T02:08:56;21.70;99.90
24085;DHT22;12268;52.110;5.548;2022-07-11T02:11:22;21.50;99.90
24085;DHT22;12268;52.110;5.548;2022-07-11T02:13:49;21.60;99.90
24085;DHT22;12268;52.110;5.548;2022-07-11T02:16:15;21.50;99.90
24085;DHT22;12268;52.110;5.548;2022-07-11T02:18:41;21.50;99.90
24085;DHT22;12268;52.110;5.548;2022-07-11T02:21:06;21.50;99.90
24085;DHT22;12268;52.110;5.548;2022-07-11T02:23:32;21.60;99.90
24085;DHT22;12268;52.110;5.548;2022-07-11T02:25:57;21.60;99.90
24085;DHT22;12268;52.110;5.548;2022-07-11T02:28:23;21.50;99.90
24085;DHT22;12268;52.110;5.548;2022-07-11T02:30:49;21.60;99.90
24085;DHT22;12268;52.110;5.548;2022-07-11T02:33:14;21.40;99.90
24085;DHT22;12268;52.110;5.548;2022-07-11T02:35:45;21.40;99.90
24085;DHT22;12268;52.110;5.548;2022-07-11T02:38:13;21.40;99.90
24085;DHT22;12268;52.110;5.548;2022-07-11T02:40:40;21.50;99.90
24085;DHT22;12268;52.110;5.548;2022-07-11T02:43:06;21.50;99.90
24085;DHT22;12268;52.110;5.548;2022-07-11T02:45:31;21.40;99.90
24085;DHT22;12268;52.110;5.548;2022-07-11T02:47:57;21.50;99.90
24085;DHT22;12268;52.110;5.548;2022-07-11T02:50:23;21.50;99.90
24085;DHT22;12268;52.110;5.548;2022-07-11T02:52:48;21.40;99.90
24085;DHT22;12268;52.110;5.548;2022-07-11T02:55:14;21.60;99.90
24085;DHT22;12268;52.110;5.548;2022-07-11T02:57:41;21.60;99.90
24085;DHT22;12268;52.110;5.548;2022-07-11T03:00:13;21.70;99.90
24085;DHT22;12268;52.110;5.548;2022-07-11T03:02:39;21.70;99.90
24085;DHT22;12268;52.110;5.548;2022-07-11T03:05:05;21.80;99.90
24085;DHT22;12268;52.110;5.548;2022-07-11T03:07:31;21.80;99.90
24085;DHT22;12268;52.110;5.548;2022-07-11T03:09:57;21.80;99.90
24085;DHT22;12268;52.110;5.548;2022-07-11T03:12:22;21.90;99.90
24085;DHT22;12268;52.110;5.548;2022-07-11T03:14:48;21.90;99.90
24085;DHT22;12268;52.110;5.548;2022-07-11T03:17:15;21.80;99.90
24085;DHT22;12268;52.110;5.548;2022-07-11T03:19:41;21.80;99.90
24085;DHT22;12268;52.110;5.548;2022-07-11T03:22:06;21.90;99.90
24085;DHT22;12268;52.110;5.548;2022-07-11T03:24:33;21.80;99.90
24085;DHT22;12268;52.110;5.548;2022-07-11T03:26:58;21.80;99.90
24085;DHT22;12268;52.110;5.548;2022-07-11T03:29:24;21.80;99.90
24085;DHT22;12268;52.110;5.548;2022-07-11T03:31:49;21.80;99.90
24085;DHT22;12268;52.110;5.548;2022-07-11T03:34:15;21.80;99.90
24085;DHT22;12268;52.110;5.548;2022-07-11T03:36:40;21.80;99.90
24085;DHT22;12268;52.110;5.548;2022-07-11T03:39:06;21.90;99.90
24085;DHT22;12268;52.110;5.548;2022-07-11T03:41:32;21.70;99.90
24085;DHT22;12268;52.110;5.548;2022-07-11T03:43:57;21.80;99.90
24085;DHT22;12268;52.110;5.548;2022-07-11T03:46:23;21.80;99.90
24085;DHT22;12268;52.110;5.548;2022-07-11T03:48:49;21.80;99.90
24085;DHT22;12268;52.110;5.548;2022-07-11T03:51:17;21.70;99.90
24085;DHT22;12268;52.110;5.548;2022-07-11T03:53:43;21.70;99.90
24085;DHT22;12268;52.110;5.548;2022-07-11T03:56:09;21.70;99.90
24085;DHT22;12268;52.110;5.548;2022-07-11T03:58:35;21.70;99.90
24085;DHT22;12268;52.110;5.548;2022-07-11T04:01:01;21.70;99.90
24085;DHT22;12268;52.110;5.548;2022-07-11T04:03:26;21.60;99.90
24085;DHT22;12268;52.110;5.548;2022-07-11T04:05:52;21.60;99.90
24085;DHT22;12268;52.110;5.548;2022-07-11T04:08:17;21.70;99.90
24085;DHT22;12268;52.110;5.548;2022-07-11T04:10:43;21.80;99.90
24085;DHT22;12268;52.110;5.548;2022-07-11T04:13:09;21.80;99.90
24085;DHT22;12268;52.110;5.548;2022-07-11T04:15:34;21.70;99.90
24085;DHT22;12268;52.110;5.548;2022-07-11T04:18:00;21.80;99.90
24085;DHT22;12268;52.110;5.548;2022-07-11T04:20:26;21.80;99.90
24085;DHT22;12268;52.110;5.548;2022-07-11T04:22:52;21.70;99.90
24085;DHT22;12268;52.110;5.548;2022-07-11T04:25:17;21.70;99.90
24085;DHT22;12268;52.110;5.548;2022-07-11T04:27:43;21.60;99.90
24085;DHT22;12268;52.110;5.548;2022-07-11T04:30:08;21.70;99.90
24085;DHT22;12268;52.110;5.548;2022-07-11T04:32:34;21.60;99.90
24085;DHT22;12268;52.110;5.548;2022-07-11T04:35:01;21.40;99.90
24085;DHT22;12268;52.110;5.548;2022-07-11T04:37:27;21.30;99.90
24085;DHT22;12268;52.110;5.548;2022-07-11T04:39:52;21.20;99.90
24085;DHT22;12268;52.110;5.548;2022-07-11T04:42:18;20.80;99.90
24085;DHT22;12268;52.110;5.548;2022-07-11T04:44:43;20.70;99.90
24085;DHT22;12268;52.110;5.548;2022-07-11T04:47:09;20.80;99.90
24085;DHT22;12268;52.110;5.548;2022-07-11T04:49:35;20.70;99.90
24085;DHT22;12268;52.110;5.548;2022-07-11T04:52:01;20.60;99.90
24085;DHT22;12268;52.110;5.548;2022-07-11T04:54:26;20.50;99.90
24085;DHT22;12268;52.110;5.548;2022-07-11T04:56:52;20.60;99.90
24085;DHT22;12268;52.110;5.548;2022-07-11T04:59:18;20.70;99.90
24085;DHT22;12268;52.110;5.548;2022-07-11T05:01:43;20.80;99.90
24085;DHT22;12268;52.110;5.548;2022-07-11T05:04:09;20.60;99.90
24085;DHT22;12268;52.110;5.548;2022-07-11T05:06:35;20.70;99.90
24085;DHT22;12268;52.110;5.548;2022-07-11T05:09:00;20.50;99.90
24085;DHT22;12268;52.110;5.548;2022-07-11T05:11:26;20.70;99.90
24085;DHT22;12268;52.110;5.548;2022-07-11T05:13:52;20.60;99.90
24085;DHT22;12268;52.110;5.548;2022-07-11T05:16:17;20.70;99.90
24085;DHT22;12268;52.110;5.548;2022-07-11T05:18:43;20.90;99.90
24085;DHT22;12268;52.110;5.548;2022-07-11T05:21:09;20.70;99.90
24085;DHT22;12268;52.110;5.548;2022-07-11T05:23:34;20.50;99.90
24085;DHT22;12268;52.110;5.548;2022-07-11T05:26:00;20.60;99.90
24085;DHT22;12268;52.110;5.548;2022-07-11T05:28:25;20.80;99.90
24085;DHT22;12268;52.110;5.548;2022-07-11T05:30:51;20.70;99.90
24085;DHT22;12268;52.110;5.548;2022-07-11T05:33:16;21.00;99.90
24085;DHT22;12268;52.110;5.548;2022-07-11T05:35:42;20.80;99.90
24085;DHT22;12268;52.110;5.548;2022-07-11T05:38:07;20.60;99.90
24085;DHT22;12268;52.110;5.548;2022-07-11T05:40:33;20.70;99.90
24085;DHT22;12268;52.110;5.548;2022-07-11T05:42:58;20.80;99.90
24085;DHT22;12268;52.110;5.548;2022-07-11T05:45:26;20.60;99.90
24085;DHT22;12268;52.110;5.548;2022-07-11T05:47:51;20.80;99.90
24085;DHT22;12268;52.110;5.548;2022-07-11T05:50:17;20.60;99.90
24085;DHT22;12268;52.110;5.548;2022-07-11T05:52:42;20.70;99.90
24085;DHT22;12268;52.110;5.548;2022-07-11T05:55:08;20.80;99.90
24085;DHT22;12268;52.110;5.548;2022-07-11T05:57:34;20.90;99.90
24085;DHT22;12268;52.110;5.548;2022-07-11T05:59:59;21.10;99.90
24085;DHT22;12268;52.110;5.548;2022-07-11T06:02:25;21.10;99.90
24085;DHT22;12268;52.110;5.548;2022-07-11T06:04:50;21.40;99.90
24085;DHT22;12268;52.110;5.548;2022-07-11T06:07:16;21.40;99.90
24085;DHT22;12268;52.110;5.548;2022-07-11T06:10:02;21.50;99.90
24085;DHT22;12268;52.110;5.548;2022-07-11T06:12:27;21.80;99.90
24085;DHT22;12268;52.110;5.548;2022-07-11T06:14:53;21.80;99.90
24085;DHT22;12268;52.110;5.548;2022-07-11T06:17:18;21.70;99.90
24085;DHT22;12268;52.110;5.548;2022-07-11T06:19:44;21.70;99.90
24085;DHT22;12268;52.110;5.548;2022-07-11T06:22:09;21.60;99.90
24085;DHT22;12268;52.110;5.548;2022-07-11T06:24:35;21.30;99.90
24085;DHT22;12268;52.110;5.548;2022-07-11T06:27:00;21.30;99.90
24085;DHT22;12268;52.110;5.548;2022-07-11T06:29:26;21.50;99.90
24085;DHT22;12268;52.110;5.548;2022-07-11T06:31:52;21.40;99.90
24085;DHT22;12268;52.110;5.548;2022-07-11T06:34:18;21.50;99.90
24085;DHT22;12268;52.110;5.548;2022-07-11T06:36:44;21.60;99.90
24085;DHT22;12268;52.110;5.548;2022-07-11T06:39:09;21.60;99.90
24085;DHT22;12268;52.110;5.548;2022-07-11T06:41:35;21.70;99.90
24085;DHT22;12268;52.110;5.548;2022-07-11T06:44:01;21.60;99.90
24085;DHT22;12268;52.110;5.548;2022-07-11T06:46:26;21.60;99.90
24085;DHT22;12268;52.110;5.548;2022-07-11T06:48:52;21.60;99.90
24085;DHT22;12268;52.110;5.548;2022-07-11T06:51:18;21.60;99.90
24085;DHT22;12268;52.110;5.548;2022-07-11T06:53:44;21.70;99.90
24085;DHT22;12268;52.110;5.548;2022-07-11T06:56:10;21.70;99.90
24085;DHT22;12268;52.110;5.548;2022-07-11T06:58:35;21.70;99.90
24085;DHT22;12268;52.110;5.548;2022-07-11T07:01:03;21.70;99.90
24085;DHT22;12268;52.110;5.548;2022-07-11T07:03:30;22.20;99.90
24085;DHT22;12268;52.110;5.548;2022-07-11T07:05:57;22.40;99.90
24085;DHT22;12268;52.110;5.548;2022-07-11T07:08:26;22.30;99.90
24085;DHT22;12268;52.110;5.548;2022-07-11T07:10:52;22.40;99.90
24085;DHT22;12268;52.110;5.548;2022-07-11T07:13:18;22.60;99.90
24085;DHT22;12268;52.110;5.548;2022-07-11T07:15:46;22.90;99.90
24085;DHT22;12268;52.110;5.548;2022-07-11T07:18:11;23.10;99.90
24085;DHT22;12268;52.110;5.548;2022-07-11T07:20:37;23.10;99.90
24085;DHT22;12268;52.110;5.548;2022-07-11T07:23:02;23.20;99.90
24085;DHT22;12268;52.110;5.548;2022-07-11T07:25:28;23.50;99.90
24085;DHT22;12268;52.110;5.548;2022-07-11T07:27:54;23.40;99.90
24085;DHT22;12268;52.110;5.548;2022-07-11T07:30:19;23.20;99.90
24085;DHT22;12268;52.110;5.548;2022-07-11T07:32:45;23.50;99.90
24085;DHT22;12268;52.110;5.548;2022-07-11T07:35:10;23.80;99.90
24085;DHT22;12268;52.110;5.548;2022-07-11T07:37:36;24.20;99.90
24085;DHT22;12268;52.110;5.548;2022-07-11T07:40:02;24.60;99.90
24085;DHT22;12268;52.110;5.548;2022-07-11T07:42:27;24.80;99.90
24085;DHT22;12268;52.110;5.548;2022-07-11T07:44:53;25.10;99.90
24085;DHT22;12268;52.110;5.548;2022-07-11T07:47:18;25.20;99.90
24085;DHT22;12268;52.110;5.548;2022-07-11T07:49:45;25.20;99.90
24085;DHT22;12268;52.110;5.548;2022-07-11T07:52:11;25.50;99.90
24085;DHT22;12268;52.110;5.548;2022-07-11T07:54:36;25.70;99.90
24085;DHT22;12268;52.110;5.548;2022-07-11T07:57:02;25.80;99.90
24085;DHT22;12268;52.110;5.548;2022-07-11T07:59:28;25.70;99.90
24085;DHT22;12268;52.110;5.548;2022-07-11T08:01:53;25.80;99.90
24085;DHT22;12268;52.110;5.548;2022-07-11T08:04:19;25.80;99.90
24085;DHT22;12268;52.110;5.548;2022-07-11T08:06:44;25.80;99.90
24085;DHT22;12268;52.110;5.548;2022-07-11T08:09:10;25.70;99.90
24085;DHT22;12268;52.110;5.548;2022-07-11T08:11:36;25.60;99.90
24085;DHT22;12268;52.110;5.548;2022-07-11T08:14:03;25.40;99.90
24085;DHT22;12268;52.110;5.548;2022-07-11T08:16:30;25.10;99.90
24085;DHT22;12268;52.110;5.548;2022-07-11T11:28:59;28.20;99.90
24085;DHT22;12268;52.110;5.548;2022-07-11T11:31:26;28.30;99.90
24085;DHT22;12268;52.110;5.548;2022-07-11T11:33:52;28.40;99.90
24085;DHT22;12268;52.110;5.548;2022-07-11T11:36:20;28.30;99.90
24085;DHT22;12268;52.110;5.548;2022-07-11T11:38:46;28.30;99.90
24085;DHT22;12268;52.110;5.548;2022-07-11T11:43:52;28.00;99.90
24085;DHT22;12268;52.110;5.548;2022-07-11T11:46:17;28.30;99.90
24085;DHT22;12268;52.110;5.548;2022-07-11T15:59:59;33.00;95.10
24085;DHT22;12268;52.110;5.548;2022-07-11T16:02:27;33.00;93.90
24085;DHT22;12268;52.110;5.548;2022-07-11T16:04:52;33.00;94.50
24085;DHT22;12268;52.110;5.548;2022-07-11T16:07:18;33.10;93.30
24085;DHT22;12268;52.110;5.548;2022-07-11T16:09:43;32.40;93.80
24085;DHT22;12268;52.110;5.548;2022-07-11T16:12:09;32.50;95.30
24085;DHT22;12268;52.110;5.548;2022-07-11T16:14:34;31.60;93.40
24085;DHT22;12268;52.110;5.548;2022-07-11T16:17:00;31.60;95.90
24085;DHT22;12268;52.110;5.548;2022-07-11T17:29:37;29.60;97.80
24085;DHT22;12268;52.110;5.548;2022-07-11T17:32:03;29.40;98.70
24085;DHT22;12268;52.110;5.548;2022-07-11T17:34:29;29.20;98.60
24085;DHT22;12268;52.110;5.548;2022-07-11T17:36:54;29.00;98.30
24085;DHT22;12268;52.110;5.548;2022-07-11T17:39:20;28.90;98.80
24085;DHT22;12268;52.110;5.548;2022-07-11T17:41:45;28.50;99.40
24085;DHT22;12268;52.110;5.548;2022-07-11T17:44:11;28.30;99.70
24085;DHT22;12268;52.110;5.548;2022-07-11T17:46:36;28.20;99.90
24085;DHT22;12268;52.110;5.548;2022-07-11T17:49:02;28.00;99.90
24085;DHT22;12268;52.110;5.548;2022-07-11T17:51:27;27.90;99.90
24085;DHT22;12268;52.110;5.548;2022-07-11T17:53:53;27.70;99.90
24085;DHT22;12268;52.110;5.548;2022-07-11T17:56:19;27.60;99.90
24085;DHT22;12268;52.110;5.548;2022-07-11T17:58:44;27.50;99.90
24085;DHT22;12268;52.110;5.548;2022-07-11T18:01:11;27.30;99.90
24085;DHT22;12268;52.110;5.548;2022-07-11T18:03:37;27.30;99.90
24085;DHT22;12268;52.110;5.548;2022-07-11T18:06:03;27.10;99.90
24085;DHT22;12268;52.110;5.548;2022-07-11T18:08:28;26.90;99.90
24085;DHT22;12268;52.110;5.548;2022-07-11T18:10:54;26.80;99.90
24085;DHT22;12268;52.110;5.548;2022-07-11T18:13:21;26.70;99.90
24085;DHT22;12268;52.110;5.548;2022-07-11T18:15:46;26.60;99.90
24085;DHT22;12268;52.110;5.548;2022-07-11T18:18:12;26.40;99.90
24085;DHT22;12268;52.110;5.548;2022-07-11T18:20:37;26.40;99.90
24085;DHT22;12268;52.110;5.548;2022-07-11T18:23:05;26.20;99.90
24085;DHT22;12268;52.110;5.548;2022-07-11T18:25:30;26.20;99.90
24085;DHT22;12268;52.110;5.548;2022-07-11T18:27:56;26.20;99.90
24085;DHT22;12268;52.110;5.548;2022-07-11T18:30:22;26.10;99.90
24085;DHT22;12268;52.110;5.548;2022-07-11T18:32:47;26.00;99.90
24085;DHT22;12268;52.110;5.548;2022-07-11T18:35:13;25.90;99.90
24085;DHT22;12268;52.110;5.548;2022-07-11T18:37:38;25.70;99.90
24085;DHT22;12268;52.110;5.548;2022-07-11T18:40:05;25.70;99.90
24085;DHT22;12268;52.110;5.548;2022-07-11T18:42:49;25.60;99.90
24085;DHT22;12268;52.110;5.548;2022-07-11T18:45:14;25.50;99.90
24085;DHT22;12268;52.110;5.548;2022-07-11T18:47:40;25.40;99.90
24085;DHT22;12268;52.110;5.548;2022-07-11T18:50:07;25.30;99.90
24085;DHT22;12268;52.110;5.548;2022-07-11T18:52:33;25.20;99.90
24085;DHT22;12268;52.110;5.548;2022-07-11T18:54:58;25.20;99.90
24085;DHT22;12268;52.110;5.548;2022-07-11T18:57:26;25.10;99.90
24085;DHT22;12268;52.110;5.548;2022-07-11T18:59:51;25.10;99.90
24085;DHT22;12268;52.110;5.548;2022-07-11T19:02:17;25.00;99.90
24085;DHT22;12268;52.110;5.548;2022-07-11T19:04:42;25.00;99.90
24085;DHT22;12268;52.110;5.548;2022-07-11T19:07:08;24.90;99.90
24085;DHT22;12268;52.110;5.548;2022-07-11T19:09:34;24.90;99.90
24085;DHT22;12268;52.110;5.548;2022-07-11T19:11:59;24.90;99.90
24085;DHT22;12268;52.110;5.548;2022-07-11T19:14:25;24.70;99.90
24085;DHT22;12268;52.110;5.548;2022-07-11T19:16:50;24.70;99.90
24085;DHT22;12268;52.110;5.548;2022-07-11T19:19:16;24.60;99.90
24085;DHT22;12268;52.110;5.548;2022-07-11T19:21:42;24.50;99.90
24085;DHT22;12268;52.110;5.548;2022-07-11T19:24:07;24.50;99.90
24085;DHT22;12268;52.110;5.548;2022-07-11T19:26:34;24.40;99.90
24085;DHT22;12268;52.110;5.548;2022-07-11T19:28:59;24.30;99.90
24085;DHT22;12268;52.110;5.548;2022-07-11T19:31:25;24.20;99.90
24085;DHT22;12268;52.110;5.548;2022-07-11T19:33:52;24.20;99.90
24085;DHT22;12268;52.110;5.548;2022-07-11T19:36:17;24.10;99.90
24085;DHT22;12268;52.110;5.548;2022-07-11T19:38:44;24.00;99.90
24085;DHT22;12268;52.110;5.548;2022-07-11T19:41:09;23.90;99.90
24085;DHT22;12268;52.110;5.548;2022-07-11T19:43:35;23.80;99.90
24085;DHT22;12268;52.110;5.548;2022-07-11T19:46:01;23.90;99.90
24085;DHT22;12268;52.110;5.548;2022-07-11T19:48:27;23.70;99.90
24085;DHT22;12268;52.110;5.548;2022-07-11T19:50:53;23.60;99.90
24085;DHT22;12268;52.110;5.548;2022-07-11T19:53:18;23.50;99.90
24085;DHT22;12268;52.110;5.548;2022-07-11T19:55:44;23.40;99.90
24085;DHT22;12268;52.110;5.548;2022-07-11T19:58:28;23.30;99.90
24085;DHT22;12268;52.110;5.548;2022-07-11T20:00:54;23.20;99.90
24085;DHT22;12268;52.110;5.548;2022-07-11T20:03:19;23.20;99.90
24085;DHT22;12268;52.110;5.548;2022-07-11T20:05:45;23.10;99.90
24085;DHT22;12268;52.110;5.548;2022-07-11T20:08:11;23.10;99.90
24085;DHT22;12268;52.110;5.548;2022-07-11T20:10:37;23.10;99.90
24085;DHT22;12268;52.110;5.548;2022-07-11T20:13:03;23.10;99.90
24085;DHT22;12268;52.110;5.548;2022-07-11T20:15:29;23.00;99.90
24085;DHT22;12268;52.110;5.548;2022-07-11T20:17:55;23.00;99.90
24085;DHT22;12268;52.110;5.548;2022-07-11T20:20:20;22.90;99.90
24085;DHT22;12268;52.110;5.548;2022-07-11T20:22:46;22.90;99.90
24085;DHT22;12268;52.110;5.548;2022-07-11T20:25:12;22.80;99.90
24085;DHT22;12268;52.110;5.548;2022-07-11T20:27:38;22.80;99.90
24085;DHT22;12268;52.110;5.548;2022-07-11T20:30:06;22.80;99.90
24085;DHT22;12268;52.110;5.548;2022-07-11T20:32:32;22.80;99.90
24085;DHT22;12268;52.110;5.548;2022-07-11T20:34:58;22.70;99.90
24085;DHT22;12268;52.110;5.548;2022-07-11T20:37:23;22.60;99.90
24085;DHT22;12268;52.110;5.548;2022-07-11T20:39:50;22.30;99.90
24085;DHT22;12268;52.110;5.548;2022-07-11T20:42:16;22.20;99.90
24085;DHT22;12268;52.110;5.548;2022-07-11T20:44:41;22.30;99.90
24085;DHT22;12268;52.110;5.548;2022-07-11T20:47:07;22.30;99.90
24085;DHT22;12268;52.110;5.548;2022-07-11T20:49:32;22.10;99.90
24085;DHT22;12268;52.110;5.548;2022-07-11T20:51:58;22.10;99.90
24085;DHT22;12268;52.110;5.548;2022-07-11T20:54:24;22.10;99.90
24085;DHT22;12268;52.110;5.548;2022-07-11T20:56:49;22.10;99.90
24085;DHT22;12268;52.110;5.548;2022-07-11T20:59:15;22.00;99.90
24085;DHT22;12268;52.110;5.548;2022-07-11T21:01:42;22.00;99.90
24085;DHT22;12268;52.110;5.548;2022-07-11T21:04:08;21.90;99.90
24085;DHT22;12268;52.110;5.548;2022-07-11T21:06:33;21.80;99.90
24085;DHT22;12268;52.110;5.548;2022-07-11T21:08:59;21.60;99.90
24085;DHT22;12268;52.110;5.548;2022-07-11T21:11:25;21.60;99.90
24085;DHT22;12268;52.110;5.548;2022-07-11T21:13:50;21.50;99.90
24085;DHT22;12268;52.110;5.548;2022-07-11T21:16:16;21.20;99.90
24085;DHT22;12268;52.110;5.548;2022-07-11T21:18:42;21.10;99.90
24085;DHT22;12268;52.110;5.548;2022-07-11T21:21:07;21.30;99.90
24085;DHT22;12268;52.110;5.548;2022-07-11T21:23:33;21.40;99.90
24085;DHT22;12268;52.110;5.548;2022-07-11T21:25:58;21.20;99.90
24085;DHT22;12268;52.110;5.548;2022-07-11T21:28:24;20.90;99.90
24085;DHT22;12268;52.110;5.548;2022-07-11T21:30:49;21.00;99.90
24085;DHT22;12268;52.110;5.548;2022-07-11T21:33:18;21.00;99.90
24085;DHT22;12268;52.110;5.548;2022-07-11T21:35:44;21.10;99.90
24085;DHT22;12268;52.110;5.548;2022-07-11T21:38:10;20.90;99.90
24085;DHT22;12268;52.110;5.548;2022-07-11T21:40:35;20.80;99.90
24085;DHT22;12268;52.110;5.548;2022-07-11T21:43:01;20.90;99.90
24085;DHT22;12268;52.110;5.548;2022-07-11T21:45:28;21.00;99.90
24085;DHT22;12268;52.110;5.548;2022-07-11T21:47:56;20.90;99.90
24085;DHT22;12268;52.110;5.548;2022-07-11T21:50:22;20.90;99.90
24085;DHT22;12268;52.110;5.548;2022-07-11T21:52:49;20.90;99.90
24085;DHT22;12268;52.110;5.548;2022-07-11T21:55:16;20.80;99.90
24085;DHT22;12268;52.110;5.548;2022-07-11T21:57:41;20.80;99.90
24085;DHT22;12268;52.110;5.548;2022-07-11T22:00:07;20.80;99.90
24085;DHT22;12268;52.110;5.548;2022-07-11T22:02:35;20.80;99.90
24085;DHT22;12268;52.110;5.548;2022-07-11T22:05:02;20.70;99.90
24085;DHT22;12268;52.110;5.548;2022-07-11T22:07:27;20.70;99.90
24085;DHT22;12268;52.110;5.548;2022-07-11T22:09:53;20.60;99.90
24085;DHT22;12268;52.110;5.548;2022-07-11T22:12:19;20.60;99.90
24085;DHT22;12268;52.110;5.548;2022-07-11T22:14:44;20.60;99.90
24085;DHT22;12268;52.110;5.548;2022-07-11T22:17:10;20.60;99.90
24085;DHT22;12268;52.110;5.548;2022-07-11T22:19:35;20.50;99.90
24085;DHT22;12268;52.110;5.548;2022-07-11T22:22:01;20.40;99.90
24085;DHT22;12268;52.110;5.548;2022-07-11T22:24:26;20.40;99.90
24085;DHT22;12268;52.110;5.548;2022-07-11T22:26:52;20.40;99.90
24085;DHT22;12268;52.110;5.548;2022-07-11T22:29:17;20.30;99.90
24085;DHT22;12268;52.110;5.548;2022-07-11T22:31:43;20.20;99.90
24085;DHT22;12268;52.110;5.548;2022-07-11T22:34:08;20.10;99.90
24085;DHT22;12268;52.110;5.548;2022-07-11T22:36:34;19.80;99.90
24085;DHT22;12268;52.110;5.548;2022-07-11T22:38:59;19.90;99.90
24085;DHT22;12268;52.110;5.548;2022-07-11T22:41:25;19.90;99.90
24085;DHT22;12268;52.110;5.548;2022-07-11T22:43:51;19.90;99.90
24085;DHT22;12268;52.110;5.548;2022-07-11T22:46:16;19.90;99.90
24085;DHT22;12268;52.110;5.548;2022-07-11T22:48:42;19.90;99.90
24085;DHT22;12268;52.110;5.548;2022-07-11T22:51:07;19.90;99.90
24085;DHT22;12268;52.110;5.548;2022-07-11T22:53:33;19.80;99.90
24085;DHT22;12268;52.110;5.548;2022-07-11T22:55:58;19.70;99.90
24085;DHT22;12268;52.110;5.548;2022-07-11T22:58:24;19.70;99.90
24085;DHT22;12268;52.110;5.548;2022-07-11T23:00:49;19.60;99.90
24085;DHT22;12268;52.110;5.548;2022-07-11T23:03:15;19.50;99.90
24085;DHT22;12268;52.110;5.548;2022-07-11T23:05:44;19.50;99.90
24085;DHT22;12268;52.110;5.548;2022-07-11T23:08:09;19.50;99.90
24085;DHT22;12268;52.110;5.548;2022-07-11T23:10:35;19.50;99.90
24085;DHT22;12268;52.110;5.548;2022-07-11T23:13:01;19.50;99.90
24085;DHT22;12268;52.110;5.548;2022-07-11T23:15:27;19.40;99.90
24085;DHT22;12268;52.110;5.548;2022-07-11T23:17:55;19.30;99.90
24085;DHT22;12268;52.110;5.548;2022-07-11T23:20:21;19.20;99.90
24085;DHT22;12268;52.110;5.548;2022-07-11T23:22:46;19.30;99.90
24085;DHT22;12268;52.110;5.548;2022-07-11T23:25:12;19.10;99.90
24085;DHT22;12268;52.110;5.548;2022-07-11T23:27:37;19.10;99.90
24085;DHT22;12268;52.110;5.548;2022-07-11T23:30:04;19.20;99.90
24085;DHT22;12268;52.110;5.548;2022-07-11T23:32:30;19.20;99.90
24085;DHT22;12268;52.110;5.548;2022-07-11T23:34:55;19.20;99.90
24085;DHT22;12268;52.110;5.548;2022-07-11T23:37:21;19.10;99.90
24085;DHT22;12268;52.110;5.548;2022-07-11T23:39:46;19.10;99.90
24085;DHT22;12268;52.110;5.548;2022-07-11T23:42:12;19.10;99.90
24085;DHT22;12268;52.110;5.548;2022-07-11T23:44:39;19.10;99.90
24085;DHT22;12268;52.110;5.548;2022-07-11T23:47:05;19.10;99.90
24085;DHT22;12268;52.110;5.548;2022-07-11T23:49:30;19.00;99.90
24085;DHT22;12268;52.110;5.548;2022-07-11T23:51:56;19.00;99.90
24085;DHT22;12268;52.110;5.548;2022-07-11T23:54:21;19.00;99.90
24085;DHT22;12268;52.110;5.548;2022-07-11T23:56:47;18.90;99.90
24085;DHT22;12268;52.110;5.548;2022-07-11T23:59:13;18.90;99.90
